EBBREBCI

Guest
Details From EBBR - Brussels Airport
To EBCI - Brussels South - Charleroi
Flight Number -
Tags generated
Created
Modified
Stats Distance 28 nm / 52 km
Max Altitude 3,500 ft / 1,067 m
Waypoints 3
Social Downloads 3
Likes 0
Share VATSIM

Download

Looking for another format? Having issues loading an existing format? Contact us
Advertisement - Login to hide

Notes

Basic altitude profile: - Ascent Rate: 2500ft/min - Ascent Speed: 250kts - Cruise Altitude: 35000ft - Cruise Speed: 420kts - Descent Rate: 1500ft/min - Descent Speed: 250kts

Route

EBBR BUPAL EBCI

ID Type Via Altitude Latitude Longitude Leg Dist Tot Dist Heading (true) Name
O EBBR APT - 0 ft / 0 m 50.89995˚ 4.49281˚ - 0 nm - Brussels Airport
BUPAL FIX - 3,500 ft / 1,067 m 50.72306˚ 4.60111˚ 11 nm 11 nm 159° / 159° -
O EBCI APT - 0 ft / 0 m 50.45995˚ 4.45312˚ 16 nm 28 nm 200° / 200° Brussels South - Charleroi

Altitude Profile

Advertisement - Login to hide

EBBR

Details ICAO EBBR (BRU)
Name Brussels Airport
Region Belgium
Timezone Europe/Brussels (UTC+2.0)
Stats Elevation 184 ft / 56 m (AMSL)
Location 50.899948° 4.492814°
Runways 3
Magnetic Variation 1.184° E

METAR

EBBR 251620Z 35003KT 300V040 9999 FEW044 24/14 Q1017 NOSIG

Decode

TAF

TAF TAF EBBR 251100Z 2512/2618 VRB03KT 9999 SCT040 PROB30 TEMPO 2514/2521 VRB15G25KT 3000 SHRA TSRAGR PROB30 TEMPO 2601/2607 3000 BR

Decode

Departure Runways

ID Width Length Bearing (true) Bearing (mag) Surface Threshold Offset Overrun Length
02 164 ft / 50 m 9,896 ft / 3,016 m 14.41° 13.23° Asphalt 249 ft / 76 m 0 ft / 0 m
07L 148 ft / 45 m 12,106 ft / 3,690 m 65.16° 63.98° Asphalt 801 ft / 244 m 0 ft / 0 m
07R 148 ft / 45 m 10,703 ft / 3,262 m 69.90° 68.72° Asphalt 499 ft / 152 m 0 ft / 0 m
20 164 ft / 50 m 9,896 ft / 3,016 m 194.42° 193.24° Asphalt 751 ft / 229 m 0 ft / 0 m
25L 148 ft / 45 m 10,703 ft / 3,262 m 249.93° 248.75° Asphalt 499 ft / 152 m 0 ft / 0 m
25R 148 ft / 45 m 12,106 ft / 3,690 m 245.20° 244.02° Asphalt 801 ft / 244 m 0 ft / 0 m

EBCI

Details ICAO EBCI (CRL)
Name Brussels South - Charleroi
Region Belgium
Timezone Europe/Brussels (UTC+2.0)
Stats Elevation 614 ft / 187 m (AMSL)
Location 50.459947° 4.453125°
Runways 1
Magnetic Variation 1.194° E

METAR

EBCI 251620Z 36004KT 320V040 9999 FEW045 24/13 Q1017 NOSIG

Decode

TAF

TAF EBCI 251100Z 2512/2618 VRB03KT 9999 SCT035 PROB30 TEMPO 2514/2522 VRB15G25KT 3000 SHRA TSRAGR PROB30 TEMPO 2601/2607 3000 BR

Decode

Destination Runways

ID Width Length Bearing (true) Bearing (mag) Surface Threshold Offset Overrun Length
07 148 ft / 45 m 8,374 ft / 2,552 m 65.53° 64.34° Asphalt 1,476 ft / 450 m 0 ft / 0 m
25 148 ft / 45 m 8,374 ft / 2,552 m 245.55° 244.36° Asphalt 0 ft / 0 m 0 ft / 0 m

Approach Navaids

Runway Type Ident Frequency Range Bearing (true) Bearing (mag) Slope Elevation
25 Localiser IGC 110.90 MHz 18 nm / 33 km 245.54° 244.35° - 614 ft / 187 m (AMSL)
25 Glidescope IGC 110.90 MHz 10 nm / 19 km 245.54° 244.35° 3.00° 614 ft / 187 m (AMSL)

Popular Alternatives